sensor_id;sensor_type;location;lat;lon;timestamp;temperature;humidity
12853;DHT22;6495;51.808;7.478;2023-04-05T00:01:35;5.60;92.40
12853;DHT22;6495;51.808;7.478;2023-04-05T00:04:24;5.50;92.50
12853;DHT22;6495;51.808;7.478;2023-04-05T00:07:15;5.50;92.60
12853;DHT22;6495;51.808;7.478;2023-04-05T00:10:05;5.50;92.80
12853;DHT22;6495;51.808;7.478;2023-04-05T00:12:54;5.50;93.00
12853;DHT22;6495;51.808;7.478;2023-04-05T00:15:44;5.40;93.00
12853;DHT22;6495;51.808;7.478;2023-04-05T00:18:33;5.40;93.10
12853;DHT22;6495;51.808;7.478;2023-04-05T00:21:24;5.30;92.90
12853;DHT22;6495;51.808;7.478;2023-04-05T00:24:13;5.30;93.10
12853;DHT22;6495;51.808;7.478;2023-04-05T00:27:01;5.20;93.10
12853;DHT22;6495;51.808;7.478;2023-04-05T00:29:50;5.20;93.30
12853;DHT22;6495;51.808;7.478;2023-04-05T00:32:40;5.20;93.60
12853;DHT22;6495;51.808;7.478;2023-04-05T00:35:29;5.20;93.20
12853;DHT22;6495;51.808;7.478;2023-04-05T00:38:17;5.10;93.10
12853;DHT22;6495;51.808;7.478;2023-04-05T00:41:06;5.10;93.20
12853;DHT22;6495;51.808;7.478;2023-04-05T00:43:55;5.10;93.20
12853;DHT22;6495;51.808;7.478;2023-04-05T00:46:45;5.10;93.20
12853;DHT22;6495;51.808;7.478;2023-04-05T00:49:36;5.00;93.00
12853;DHT22;6495;51.808;7.478;2023-04-05T00:52:26;5.00;92.90
12853;DHT22;6495;51.808;7.478;2023-04-05T00:55:17;5.00;92.70
12853;DHT22;6495;51.808;7.478;2023-04-05T00:58:06;4.90;92.70
12853;DHT22;6495;51.808;7.478;2023-04-05T01:01:01;4.90;92.90
12853;DHT22;6495;51.808;7.478;2023-04-05T01:04:00;4.80;93.00
12853;DHT22;6495;51.808;7.478;2023-04-05T01:06:59;4.80;93.20
12853;DHT22;6495;51.808;7.478;2023-04-05T01:09:56;4.70;93.30
12853;DHT22;6495;51.808;7.478;2023-04-05T01:12:46;4.70;93.50
12853;DHT22;6495;51.808;7.478;2023-04-05T01:15:35;4.60;94.00
12853;DHT22;6495;51.808;7.478;2023-04-05T01:18:24;4.50;93.80
12853;DHT22;6495;51.808;7.478;2023-04-05T01:21:40;4.50;93.80
12853;DHT22;6495;51.808;7.478;2023-04-05T01:24:49;4.50;93.80
12853;DHT22;6495;51.808;7.478;2023-04-05T01:28:12;4.40;94.00
12853;DHT22;6495;51.808;7.478;2023-04-05T01:31:21;4.40;94.30
12853;DHT22;6495;51.808;7.478;2023-04-05T01:34:22;4.40;94.40
12853;DHT22;6495;51.808;7.478;2023-04-05T01:37:19;4.30;94.50
12853;DHT22;6495;51.808;7.478;2023-04-05T01:40:13;4.30;94.40
12853;DHT22;6495;51.808;7.478;2023-04-05T01:43:10;4.20;94.60
12853;DHT22;6495;51.808;7.478;2023-04-05T01:45:59;4.20;94.80
12853;DHT22;6495;51.808;7.478;2023-04-05T01:48:51;4.20;94.50
12853;DHT22;6495;51.808;7.478;2023-04-05T01:51:42;4.20;94.70
12853;DHT22;6495;51.808;7.478;2023-04-05T01:54:31;4.10;94.60
12853;DHT22;6495;51.808;7.478;2023-04-05T01:57:19;4.10;94.90
12853;DHT22;6495;51.808;7.478;2023-04-05T02:00:08;4.00;95.20
12853;DHT22;6495;51.808;7.478;2023-04-05T02:03:00;4.00;95.10
12853;DHT22;6495;51.808;7.478;2023-04-05T02:05:50;4.00;95.20
12853;DHT22;6495;51.808;7.478;2023-04-05T02:08:39;3.90;95.50
12853;DHT22;6495;51.808;7.478;2023-04-05T02:11:27;3.80;95.20
12853;DHT22;6495;51.808;7.478;2023-04-05T02:14:17;3.80;95.10
12853;DHT22;6495;51.808;7.478;2023-04-05T02:17:06;3.70;95.10
12853;DHT22;6495;51.808;7.478;2023-04-05T02:19:54;3.70;95.60
12853;DHT22;6495;51.808;7.478;2023-04-05T02:22:49;3.60;95.80
12853;DHT22;6495;51.808;7.478;2023-04-05T02:25:37;3.60;96.00
12853;DHT22;6495;51.808;7.478;2023-04-05T02:28:26;3.50;96.50
12853;DHT22;6495;51.808;7.478;2023-04-05T02:31:14;3.50;97.00
12853;DHT22;6495;51.808;7.478;2023-04-05T02:34:03;3.40;97.20
12853;DHT22;6495;51.808;7.478;2023-04-05T02:36:55;3.40;97.40
12853;DHT22;6495;51.808;7.478;2023-04-05T02:39:45;3.30;97.90
12853;DHT22;6495;51.808;7.478;2023-04-05T02:42:38;3.30;98.00
12853;DHT22;6495;51.808;7.478;2023-04-05T02:45:26;3.20;98.50
12853;DHT22;6495;51.808;7.478;2023-04-05T02:48:17;3.20;98.80
12853;DHT22;6495;51.808;7.478;2023-04-05T02:51:06;3.10;98.80
12853;DHT22;6495;51.808;7.478;2023-04-05T02:53:55;3.10;99.00
12853;DHT22;6495;51.808;7.478;2023-04-05T02:56:46;3.10;98.90
12853;DHT22;6495;51.808;7.478;2023-04-05T02:59:36;3.10;99.00
12853;DHT22;6495;51.808;7.478;2023-04-05T03:02:25;3.00;99.60
12853;DHT22;6495;51.808;7.478;2023-04-05T03:05:14;3.00;99.70
12853;DHT22;6495;51.808;7.478;2023-04-05T03:08:08;3.00;99.90
12853;DHT22;6495;51.808;7.478;2023-04-05T03:11:12;3.00;99.90
12853;DHT22;6495;51.808;7.478;2023-04-05T03:14:06;2.90;99.90
12853;DHT22;6495;51.808;7.478;2023-04-05T03:17:02;2.90;99.90
12853;DHT22;6495;51.808;7.478;2023-04-05T03:19:56;2.80;99.90
12853;DHT22;6495;51.808;7.478;2023-04-05T03:22:46;2.80;99.90
12853;DHT22;6495;51.808;7.478;2023-04-05T03:25:36;2.80;99.90
12853;DHT22;6495;51.808;7.478;2023-04-05T03:28:26;2.80;99.90
12853;DHT22;6495;51.808;7.478;2023-04-05T03:31:21;2.80;99.90
12853;DHT22;6495;51.808;7.478;2023-04-05T03:34:09;2.70;99.90
12853;DHT22;6495;51.808;7.478;2023-04-05T03:37:03;2.70;99.90
12853;DHT22;6495;51.808;7.478;2023-04-05T03:40:02;2.70;99.90
12853;DHT22;6495;51.808;7.478;2023-04-05T03:42:52;2.70;99.90
12853;DHT22;6495;51.808;7.478;2023-04-05T03:45:40;2.70;99.90
12853;DHT22;6495;51.808;7.478;2023-04-05T03:48:31;2.60;99.90
12853;DHT22;6495;51.808;7.478;2023-04-05T03:51:19;2.60;99.90
12853;DHT22;6495;51.808;7.478;2023-04-05T03:54:09;2.60;99.90
12853;DHT22;6495;51.808;7.478;2023-04-05T03:56:58;2.60;99.90
12853;DHT22;6495;51.808;7.478;2023-04-05T03:59:47;2.50;99.90
12853;DHT22;6495;51.808;7.478;2023-04-05T04:02:36;2.50;99.90
12853;DHT22;6495;51.808;7.478;2023-04-05T04:05:26;2.50;99.90
12853;DHT22;6495;51.808;7.478;2023-04-05T04:08:15;2.50;99.90
12853;DHT22;6495;51.808;7.478;2023-04-05T04:11:03;2.50;99.90
12853;DHT22;6495;51.808;7.478;2023-04-05T04:13:56;2.40;99.90
12853;DHT22;6495;51.808;7.478;2023-04-05T04:16:55;2.40;99.90
12853;DHT22;6495;51.808;7.478;2023-04-05T04:19:49;2.40;99.90
12853;DHT22;6495;51.808;7.478;2023-04-05T04:23:04;2.40;99.90
12853;DHT22;6495;51.808;7.478;2023-04-05T04:26:14;2.40;99.90
12853;DHT22;6495;51.808;7.478;2023-04-05T04:29:22;2.30;99.90
12853;DHT22;6495;51.808;7.478;2023-04-05T04:32:50;2.30;99.90
12853;DHT22;6495;51.808;7.478;2023-04-05T04:35:53;2.30;99.90
12853;DHT22;6495;51.808;7.478;2023-04-05T04:38:53;2.30;99.90
12853;DHT22;6495;51.808;7.478;2023-04-05T04:42:08;2.20;99.90
12853;DHT22;6495;51.808;7.478;2023-04-05T04:45:20;2.20;99.90
12853;DHT22;6495;51.808;7.478;2023-04-05T04:48:27;2.20;99.90
12853;DHT22;6495;51.808;7.478;2023-04-05T04:51:25;2.10;99.90
12853;DHT22;6495;51.808;7.478;2023-04-05T04:54:15;2.10;99.90
12853;DHT22;6495;51.808;7.478;2023-04-05T04:57:06;2.10;99.90
12853;DHT22;6495;51.808;7.478;2023-04-05T04:59:55;2.10;99.90
12853;DHT22;6495;51.808;7.478;2023-04-05T05:02:51;2.10;99.90
12853;DHT22;6495;51.808;7.478;2023-04-05T05:05:43;2.00;99.90
12853;DHT22;6495;51.808;7.478;2023-04-05T05:08:35;2.00;99.90
12853;DHT22;6495;51.808;7.478;2023-04-05T05:11:25;2.00;99.90
12853;DHT22;6495;51.808;7.478;2023-04-05T05:14:14;2.00;99.90
12853;DHT22;6495;51.808;7.478;2023-04-05T05:17:03;2.00;99.90
12853;DHT22;6495;51.808;7.478;2023-04-05T05:19:52;2.00;99.90
12853;DHT22;6495;51.808;7.478;2023-04-05T05:22:42;2.00;99.90
12853;DHT22;6495;51.808;7.478;2023-04-05T05:25:32;1.90;99.90
12853;DHT22;6495;51.808;7.478;2023-04-05T05:28:25;1.90;99.90
12853;DHT22;6495;51.808;7.478;2023-04-05T05:31:13;1.90;99.90
12853;DHT22;6495;51.808;7.478;2023-04-05T05:34:04;1.90;99.90
12853;DHT22;6495;51.808;7.478;2023-04-05T05:37:01;1.90;99.90
12853;DHT22;6495;51.808;7.478;2023-04-05T05:40:00;1.90;99.90
12853;DHT22;6495;51.808;7.478;2023-04-05T05:42:50;1.90;99.90
12853;DHT22;6495;51.808;7.478;2023-04-05T05:45:40;2.00;99.90
12853;DHT22;6495;51.808;7.478;2023-04-05T05:48:28;2.00;99.90
12853;DHT22;6495;51.808;7.478;2023-04-05T05:51:17;2.00;99.90
12853;DHT22;6495;51.808;7.478;2023-04-05T05:54:06;2.10;99.90
12853;DHT22;6495;51.808;7.478;2023-04-05T05:56:54;2.10;99.90
12853;DHT22;6495;51.808;7.478;2023-04-05T05:59:42;2.10;99.90
12853;DHT22;6495;51.808;7.478;2023-04-05T06:02:32;2.20;99.90
12853;DHT22;6495;51.808;7.478;2023-04-05T06:05:21;2.20;99.90
12853;DHT22;6495;51.808;7.478;2023-04-05T06:08:09;2.20;99.90
12853;DHT22;6495;51.808;7.478;2023-04-05T06:10:58;2.30;99.90
12853;DHT22;6495;51.808;7.478;2023-04-05T06:13:47;2.40;99.90
12853;DHT22;6495;51.808;7.478;2023-04-05T06:16:37;2.50;99.90
12853;DHT22;6495;51.808;7.478;2023-04-05T06:19:28;2.50;99.90
12853;DHT22;6495;51.808;7.478;2023-04-05T06:22:16;2.60;99.90
12853;DHT22;6495;51.808;7.478;2023-04-05T06:25:06;2.70;99.90
12853;DHT22;6495;51.808;7.478;2023-04-05T06:27:59;2.70;99.90
12853;DHT22;6495;51.808;7.478;2023-04-05T06:30:49;2.80;99.90
12853;DHT22;6495;51.808;7.478;2023-04-05T06:33:37;2.90;99.90
12853;DHT22;6495;51.808;7.478;2023-04-05T06:36:29;3.00;99.90
12853;DHT22;6495;51.808;7.478;2023-04-05T06:39:20;3.10;99.90
12853;DHT22;6495;51.808;7.478;2023-04-05T06:42:08;3.10;99.90
12853;DHT22;6495;51.808;7.478;2023-04-05T06:45:04;3.20;99.90
12853;DHT22;6495;51.808;7.478;2023-04-05T06:47:53;3.30;99.90
12853;DHT22;6495;51.808;7.478;2023-04-05T06:50:42;3.40;99.90
12853;DHT22;6495;51.808;7.478;2023-04-05T06:53:32;3.50;99.90
12853;DHT22;6495;51.808;7.478;2023-04-05T06:56:23;3.60;99.90
12853;DHT22;6495;51.808;7.478;2023-04-05T06:59:12;3.70;99.90
12853;DHT22;6495;51.808;7.478;2023-04-05T07:02:00;3.80;99.90
12853;DHT22;6495;51.808;7.478;2023-04-05T07:04:49;3.80;99.90
12853;DHT22;6495;51.808;7.478;2023-04-05T07:07:38;3.90;99.90
12853;DHT22;6495;51.808;7.478;2023-04-05T07:10:29;4.00;99.90
12853;DHT22;6495;51.808;7.478;2023-04-05T07:13:19;4.10;99.90
12853;DHT22;6495;51.808;7.478;2023-04-05T07:16:09;4.30;99.90
12853;DHT22;6495;51.808;7.478;2023-04-05T07:18:57;4.40;99.90
12853;DHT22;6495;51.808;7.478;2023-04-05T07:21:46;4.50;99.90
12853;DHT22;6495;51.808;7.478;2023-04-05T07:24:35;4.50;99.90
12853;DHT22;6495;51.808;7.478;2023-04-05T07:27:25;4.60;99.90
12853;DHT22;6495;51.808;7.478;2023-04-05T07:30:14;4.70;99.90
12853;DHT22;6495;51.808;7.478;2023-04-05T07:33:02;4.80;99.90
12853;DHT22;6495;51.808;7.478;2023-04-05T07:35:51;4.90;99.90
12853;DHT22;6495;51.808;7.478;2023-04-05T07:38:40;5.10;99.90
12853;DHT22;6495;51.808;7.478;2023-04-05T07:41:38;5.20;99.90
12853;DHT22;6495;51.808;7.478;2023-04-05T07:44:39;5.30;99.90
12853;DHT22;6495;51.808;7.478;2023-04-05T07:47:27;5.50;99.90
12853;DHT22;6495;51.808;7.478;2023-04-05T07:50:40;5.60;99.90
12853;DHT22;6495;51.808;7.478;2023-04-05T07:53:34;5.70;99.90
12853;DHT22;6495;51.808;7.478;2023-04-05T07:56:23;5.90;99.90
12853;DHT22;6495;51.808;7.478;2023-04-05T07:59:12;6.10;99.90
12853;DHT22;6495;51.808;7.478;2023-04-05T08:02:02;6.20;99.90
12853;DHT22;6495;51.808;7.478;2023-04-05T08:05:00;6.40;99.90
12853;DHT22;6495;51.808;7.478;2023-04-05T08:07:49;6.50;99.90
12853;DHT22;6495;51.808;7.478;2023-04-05T08:10:38;6.70;99.90
12853;DHT22;6495;51.808;7.478;2023-04-05T08:13:28;6.90;99.90
12853;DHT22;6495;51.808;7.478;2023-04-05T08:16:18;7.00;99.90
12853;DHT22;6495;51.808;7.478;2023-04-05T08:19:17;7.10;99.90
12853;DHT22;6495;51.808;7.478;2023-04-05T08:22:06;7.20;99.90
12853;DHT22;6495;51.808;7.478;2023-04-05T08:24:54;7.40;99.90
12853;DHT22;6495;51.808;7.478;2023-04-05T08:27:43;7.50;99.90
12853;DHT22;6495;51.808;7.478;2023-04-05T08:30:31;7.60;99.90
12853;DHT22;6495;51.808;7.478;2023-04-05T08:33:20;7.80;99.90
12853;DHT22;6495;51.808;7.478;2023-04-05T08:36:10;7.80;99.90
12853;DHT22;6495;51.808;7.478;2023-04-05T08:38:58;7.90;99.90
12853;DHT22;6495;51.808;7.478;2023-04-05T08:41:53;8.10;99.90
12853;DHT22;6495;51.808;7.478;2023-04-05T08:44:50;8.30;99.90
12853;DHT22;6495;51.808;7.478;2023-04-05T08:47:41;8.40;99.90
12853;DHT22;6495;51.808;7.478;2023-04-05T08:50:30;8.50;99.90
12853;DHT22;6495;51.808;7.478;2023-04-05T08:53:20;8.60;98.90
12853;DHT22;6495;51.808;7.478;2023-04-05T08:56:10;8.70;98.40
12853;DHT22;6495;51.808;7.478;2023-04-05T08:59:03;8.70;97.90
12853;DHT22;6495;51.808;7.478;2023-04-05T09:02:26;8.80;97.20
12853;DHT22;6495;51.808;7.478;2023-04-05T09:05:17;8.80;95.90
12853;DHT22;6495;51.808;7.478;2023-04-05T09:08:07;8.90;97.00
12853;DHT22;6495;51.808;7.478;2023-04-05T09:10:57;9.10;96.80
12853;DHT22;6495;51.808;7.478;2023-04-05T09:13:46;9.30;96.70
12853;DHT22;6495;51.808;7.478;2023-04-05T09:16:36;9.40;96.90
12853;DHT22;6495;51.808;7.478;2023-04-05T09:19:26;9.50;96.30
12853;DHT22;6495;51.808;7.478;2023-04-05T09:22:15;9.60;95.00
12853;DHT22;6495;51.808;7.478;2023-04-05T09:25:05;9.60;94.90
12853;DHT22;6495;51.808;7.478;2023-04-05T09:27:56;9.60;94.60
12853;DHT22;6495;51.808;7.478;2023-04-05T09:30:45;9.70;94.60
12853;DHT22;6495;51.808;7.478;2023-04-05T09:33:34;9.80;94.40
12853;DHT22;6495;51.808;7.478;2023-04-05T09:36:23;9.90;94.50
12853;DHT22;6495;51.808;7.478;2023-04-05T09:39:11;10.00;93.50
12853;DHT22;6495;51.808;7.478;2023-04-05T09:42:06;10.20;93.20
12853;DHT22;6495;51.808;7.478;2023-04-05T09:45:00;10.30;92.80
12853;DHT22;6495;51.808;7.478;2023-04-05T09:47:57;10.30;92.30
12853;DHT22;6495;51.808;7.478;2023-04-05T09:50:47;10.40;92.40
12853;DHT22;6495;51.808;7.478;2023-04-05T09:53:36;10.50;91.70
12853;DHT22;6495;51.808;7.478;2023-04-05T09:56:25;10.60;92.20
12853;DHT22;6495;51.808;7.478;2023-04-05T09:59:16;10.60;90.50
12853;DHT22;6495;51.808;7.478;2023-04-05T10:02:06;10.70;90.50
12853;DHT22;6495;51.808;7.478;2023-04-05T10:04:55;10.80;90.70
12853;DHT22;6495;51.808;7.478;2023-04-05T10:07:44;10.80;90.30
12853;DHT22;6495;51.808;7.478;2023-04-05T10:10:37;10.80;89.80
12853;DHT22;6495;51.808;7.478;2023-04-05T10:13:34;10.90;90.00
12853;DHT22;6495;51.808;7.478;2023-04-05T10:16:25;11.00;89.20
12853;DHT22;6495;51.808;7.478;2023-04-05T10:19:25;11.10;90.10
12853;DHT22;6495;51.808;7.478;2023-04-05T10:22:21;11.20;89.10
12853;DHT22;6495;51.808;7.478;2023-04-05T10:25:20;11.20;86.60
12853;DHT22;6495;51.808;7.478;2023-04-05T10:28:21;11.10;87.40
12853;DHT22;6495;51.808;7.478;2023-04-05T10:31:22;11.10;86.50
12853;DHT22;6495;51.808;7.478;2023-04-05T10:34:30;11.30;86.70
12853;DHT22;6495;51.808;7.478;2023-04-05T10:37:29;11.40;86.90
12853;DHT22;6495;51.808;7.478;2023-04-05T10:40:31;11.50;84.80
12853;DHT22;6495;51.808;7.478;2023-04-05T10:43:22;11.50;84.70
12853;DHT22;6495;51.808;7.478;2023-04-05T10:46:18;11.60;85.10
12853;DHT22;6495;51.808;7.478;2023-04-05T10:49:15;11.70;84.90
12853;DHT22;6495;51.808;7.478;2023-04-05T10:52:10;11.80;84.60
12853;DHT22;6495;51.808;7.478;2023-04-05T10:55:01;11.90;85.00
12853;DHT22;6495;51.808;7.478;2023-04-05T10:57:51;11.90;84.10
12853;DHT22;6495;51.808;7.478;2023-04-05T11:00:42;12.00;83.80
12853;DHT22;6495;51.808;7.478;2023-04-05T11:03:44;12.10;82.30
12853;DHT22;6495;51.808;7.478;2023-04-05T11:06:34;12.10;80.00
12853;DHT22;6495;51.808;7.478;2023-04-05T11:09:25;12.20;80.90
12853;DHT22;6495;51.808;7.478;2023-04-05T11:12:14;12.20;81.20
12853;DHT22;6495;51.808;7.478;2023-04-05T11:15:27;12.30;81.80
12853;DHT22;6495;51.808;7.478;2023-04-05T11:18:20;12.40;81.20
12853;DHT22;6495;51.808;7.478;2023-04-05T11:21:09;12.40;82.20
12853;DHT22;6495;51.808;7.478;2023-04-05T11:24:03;12.50;80.50
12853;DHT22;6495;51.808;7.478;2023-04-05T11:26:55;12.50;81.00
12853;DHT22;6495;51.808;7.478;2023-04-05T11:29:47;12.70;80.60
12853;DHT22;6495;51.808;7.478;2023-04-05T11:32:42;12.70;80.90
12853;DHT22;6495;51.808;7.478;2023-04-05T11:35:33;12.80;81.10
12853;DHT22;6495;51.808;7.478;2023-04-05T11:38:26;12.80;80.00
12853;DHT22;6495;51.808;7.478;2023-04-05T11:41:16;12.90;81.40
12853;DHT22;6495;51.808;7.478;2023-04-05T11:44:13;12.90;79.80
12853;DHT22;6495;51.808;7.478;2023-04-05T11:47:03;12.90;78.50
12853;DHT22;6495;51.808;7.478;2023-04-05T11:49:52;12.90;79.30
12853;DHT22;6495;51.808;7.478;2023-04-05T11:52:40;12.80;77.90
12853;DHT22;6495;51.808;7.478;2023-04-05T11:55:28;12.70;77.20
12853;DHT22;6495;51.808;7.478;2023-04-05T11:58:19;12.80;75.70
12853;DHT22;6495;51.808;7.478;2023-04-05T12:01:10;12.90;76.10
12853;DHT22;6495;51.808;7.478;2023-04-05T12:03:59;13.00;76.00
12853;DHT22;6495;51.808;7.478;2023-04-05T12:06:47;13.10;76.10
12853;DHT22;6495;51.808;7.478;2023-04-05T12:09:51;13.20;76.20
12853;DHT22;6495;51.808;7.478;2023-04-05T12:12:49;13.30;76.70
12853;DHT22;6495;51.808;7.478;2023-04-05T12:15:39;13.40;77.40
12853;DHT22;6495;51.808;7.478;2023-04-05T12:18:31;13.50;76.90
12853;DHT22;6495;51.808;7.478;2023-04-05T12:21:22;13.60;75.80
12853;DHT22;6495;51.808;7.478;2023-04-05T12:24:12;13.70;74.90
12853;DHT22;6495;51.808;7.478;2023-04-05T12:27:01;13.80;76.10
12853;DHT22;6495;51.808;7.478;2023-04-05T12:30:11;13.80;75.20
12853;DHT22;6495;51.808;7.478;2023-04-05T12:33:06;13.80;73.60
12853;DHT22;6495;51.808;7.478;2023-04-05T12:35:58;13.70;72.40
12853;DHT22;6495;51.808;7.478;2023-04-05T12:38:53;13.80;73.20
12853;DHT22;6495;51.808;7.478;2023-04-05T12:41:42;13.80;71.90
12853;DHT22;6495;51.808;7.478;2023-04-05T12:44:30;13.90;72.40
12853;DHT22;6495;51.808;7.478;2023-04-05T12:47:21;13.90;71.20
12853;DHT22;6495;51.808;7.478;2023-04-05T12:50:14;14.00;73.10
12853;DHT22;6495;51.808;7.478;2023-04-05T12:53:05;14.10;72.10
12853;DHT22;6495;51.808;7.478;2023-04-05T12:55:55;14.20;72.00
12853;DHT22;6495;51.808;7.478;2023-04-05T12:58:48;14.20;70.70
12853;DHT22;6495;51.808;7.478;2023-04-05T13:01:37;14.20;71.40
12853;DHT22;6495;51.808;7.478;2023-04-05T13:04:26;14.30;70.90
12853;DHT22;6495;51.808;7.478;2023-04-05T13:07:14;14.40;70.70
12853;DHT22;6495;51.808;7.478;2023-04-05T13:10:05;14.40;70.20
12853;DHT22;6495;51.808;7.478;2023-04-05T13:12:55;14.40;71.60
12853;DHT22;6495;51.808;7.478;2023-04-05T13:15:44;14.40;69.50
12853;DHT22;6495;51.808;7.478;2023-04-05T13:18:34;14.50;69.00
12853;DHT22;6495;51.808;7.478;2023-04-05T13:21:23;14.40;69.50
12853;DHT22;6495;51.808;7.478;2023-04-05T13:24:11;14.30;68.10
12853;DHT22;6495;51.808;7.478;2023-04-05T13:27:01;14.40;70.20
12853;DHT22;6495;51.808;7.478;2023-04-05T13:29:50;14.40;69.70
12853;DHT22;6495;51.808;7.478;2023-04-05T13:32:39;14.40;68.50
12853;DHT22;6495;51.808;7.478;2023-04-05T13:35:27;14.50;69.10
12853;DHT22;6495;51.808;7.478;2023-04-05T13:38:16;14.70;70.20
12853;DHT22;6495;51.808;7.478;2023-04-05T13:41:05;14.80;69.60
12853;DHT22;6495;51.808;7.478;2023-04-05T13:43:55;14.90;69.40
12853;DHT22;6495;51.808;7.478;2023-04-05T13:46:46;15.00;69.30
12853;DHT22;6495;51.808;7.478;2023-04-05T13:49:35;15.00;68.80
12853;DHT22;6495;51.808;7.478;2023-04-05T13:52:23;15.00;68.10
12853;DHT22;6495;51.808;7.478;2023-04-05T13:55:12;15.00;67.70
12853;DHT22;6495;51.808;7.478;2023-04-05T13:58:01;15.00;67.80
12853;DHT22;6495;51.808;7.478;2023-04-05T14:00:51;15.00;68.90
12853;DHT22;6495;51.808;7.478;2023-04-05T14:03:40;15.00;68.50
12853;DHT22;6495;51.808;7.478;2023-04-05T14:06:29;15.00;68.90
12853;DHT22;6495;51.808;7.478;2023-04-05T14:09:26;14.90;66.30
12853;DHT22;6495;51.808;7.478;2023-04-05T14:12:15;14.80;65.20
12853;DHT22;6495;51.808;7.478;2023-04-05T14:15:05;14.70;65.50
12853;DHT22;6495;51.808;7.478;2023-04-05T14:17:56;14.70;64.90
12853;DHT22;6495;51.808;7.478;2023-04-05T14:20:44;14.60;65.00
12853;DHT22;6495;51.808;7.478;2023-04-05T14:23:33;14.60;65.30
12853;DHT22;6495;51.808;7.478;2023-04-05T14:26:22;14.60;65.00
12853;DHT22;6495;51.808;7.478;2023-04-05T14:29:11;14.50;64.10
12853;DHT22;6495;51.808;7.478;2023-04-05T14:32:00;14.50;66.20
12853;DHT22;6495;51.808;7.478;2023-04-05T14:34:51;14.40;64.80
12853;DHT22;6495;51.808;7.478;2023-04-05T14:37:39;14.30;64.80
12853;DHT22;6495;51.808;7.478;2023-04-05T14:40:28;14.30;63.70
12853;DHT22;6495;51.808;7.478;2023-04-05T14:43:16;14.40;64.00
12853;DHT22;6495;51.808;7.478;2023-04-05T14:46:05;14.50;64.10
12853;DHT22;6495;51.808;7.478;2023-04-05T14:48:54;14.50;63.10
12853;DHT22;6495;51.808;7.478;2023-04-05T14:51:43;14.60;64.30
12853;DHT22;6495;51.808;7.478;2023-04-05T14:54:32;14.70;64.20
12853;DHT22;6495;51.808;7.478;2023-04-05T14:57:20;14.70;63.40
12853;DHT22;6495;51.808;7.478;2023-04-05T15:00:10;14.80;64.30
12853;DHT22;6495;51.808;7.478;2023-04-05T15:03:00;14.90;64.00
12853;DHT22;6495;51.808;7.478;2023-04-05T15:05:48;15.00;64.50
12853;DHT22;6495;51.808;7.478;2023-04-05T15:08:39;15.10;62.60
12853;DHT22;6495;51.808;7.478;2023-04-05T15:11:28;15.20;63.40
12853;DHT22;6495;51.808;7.478;2023-04-05T15:14:20;15.30;63.40
12853;DHT22;6495;51.808;7.478;2023-04-05T15:17:19;15.30;63.30
12853;DHT22;6495;51.808;7.478;2023-04-05T15:20:08;15.40;62.60
12853;DHT22;6495;51.808;7.478;2023-04-05T15:22:57;15.50;65.00
12853;DHT22;6495;51.808;7.478;2023-04-05T15:25:50;15.50;61.80
12853;DHT22;6495;51.808;7.478;2023-04-05T15:28:47;15.50;62.30
12853;DHT22;6495;51.808;7.478;2023-04-05T15:31:35;15.50;62.70
12853;DHT22;6495;51.808;7.478;2023-04-05T15:34:24;15.50;62.50
12853;DHT22;6495;51.808;7.478;2023-04-05T15:37:15;15.50;62.50
12853;DHT22;6495;51.808;7.478;2023-04-05T15:40:06;15.50;62.30
12853;DHT22;6495;51.808;7.478;2023-04-05T15:43:00;15.60;62.60
12853;DHT22;6495;51.808;7.478;2023-04-05T15:45:50;15.50;61.30
12853;DHT22;6495;51.808;7.478;2023-04-05T15:48:40;15.50;60.40
12853;DHT22;6495;51.808;7.478;2023-04-05T15:51:30;15.50;60.40
12853;DHT22;6495;51.808;7.478;2023-04-05T15:54:25;15.40;60.00
12853;DHT22;6495;51.808;7.478;2023-04-05T15:57:14;15.50;60.00
12853;DHT22;6495;51.808;7.478;2023-04-05T16:00:12;15.50;59.90
12853;DHT22;6495;51.808;7.478;2023-04-05T16:03:05;15.50;59.90
12853;DHT22;6495;51.808;7.478;2023-04-05T16:06:01;15.60;60.00
12853;DHT22;6495;51.808;7.478;2023-04-05T16:08:59;15.50;59.10
12853;DHT22;6495;51.808;7.478;2023-04-05T16:11:54;15.50;59.30
12853;DHT22;6495;51.808;7.478;2023-04-05T16:14:43;15.50;59.30
12853;DHT22;6495;51.808;7.478;2023-04-05T16:17:33;15.40;59.20
12853;DHT22;6495;51.808;7.478;2023-04-05T16:20:29;15.40;59.50
12853;DHT22;6495;51.808;7.478;2023-04-05T16:23:26;15.40;59.50
12853;DHT22;6495;51.808;7.478;2023-04-05T16:26:21;15.30;59.40
12853;DHT22;6495;51.808;7.478;2023-04-05T16:35:02;15.40;59.90
12853;DHT22;6495;51.808;7.478;2023-04-05T16:40:56;15.40;59.40
12853;DHT22;6495;51.808;7.478;2023-04-05T16:43:51;15.40;59.10
12853;DHT22;6495;51.808;7.478;2023-04-05T16:46:53;15.40;59.10
12853;DHT22;6495;51.808;7.478;2023-04-05T16:49:55;15.40;58.90
12853;DHT22;6495;51.808;7.478;2023-04-05T16:53:03;15.50;59.00
12853;DHT22;6495;51.808;7.478;2023-04-05T16:56:55;15.40;58.40
12853;DHT22;6495;51.808;7.478;2023-04-05T17:00:21;15.30;58.30
12853;DHT22;6495;51.808;7.478;2023-04-05T17:04:07;15.20;58.40
12853;DHT22;6495;51.808;7.478;2023-04-05T17:08:03;15.00;58.30
12853;DHT22;6495;51.808;7.478;2023-04-05T18:39:00;12.00;60.70
12853;DHT22;6495;51.808;7.478;2023-04-05T18:42:04;11.90;60.60
12853;DHT22;6495;51.808;7.478;2023-04-05T18:44:57;11.80;60.20
12853;DHT22;6495;51.808;7.478;2023-04-05T18:47:51;11.70;60.20
12853;DHT22;6495;51.808;7.478;2023-04-05T18:50:41;11.50;60.30
12853;DHT22;6495;51.808;7.478;2023-04-05T18:53:31;11.50;60.40
12853;DHT22;6495;51.808;7.478;2023-04-05T18:56:21;11.40;60.50
12853;DHT22;6495;51.808;7.478;2023-04-05T18:59:11;11.20;60.50
12853;DHT22;6495;51.808;7.478;2023-04-05T19:02:01;11.20;60.70
12853;DHT22;6495;51.808;7.478;2023-04-05T19:05:00;11.10;60.70
12853;DHT22;6495;51.808;7.478;2023-04-05T19:08:05;11.00;60.70
12853;DHT22;6495;51.808;7.478;2023-04-05T19:11:10;11.00;60.60
12853;DHT22;6495;51.808;7.478;2023-04-05T19:14:02;10.90;60.40
12853;DHT22;6495;51.808;7.478;2023-04-05T19:16:54;10.80;60.40
12853;DHT22;6495;51.808;7.478;2023-04-05T19:19:43;10.70;60.30
12853;DHT22;6495;51.808;7.478;2023-04-05T19:22:32;10.60;60.20
12853;DHT22;6495;51.808;7.478;2023-04-05T19:25:20;10.60;60.50
12853;DHT22;6495;51.808;7.478;2023-04-05T19:28:09;10.50;60.70
12853;DHT22;6495;51.808;7.478;2023-04-05T19:31:00;10.40;60.70
12853;DHT22;6495;51.808;7.478;2023-04-05T19:33:50;10.30;60.60
12853;DHT22;6495;51.808;7.478;2023-04-05T19:36:38;10.20;60.60
12853;DHT22;6495;51.808;7.478;2023-04-05T19:39:27;10.10;60.90
12853;DHT22;6495;51.808;7.478;2023-04-05T19:42:17;10.00;61.00
12853;DHT22;6495;51.808;7.478;2023-04-05T19:45:09;9.90;62.20
12853;DHT22;6495;51.808;7.478;2023-04-05T19:51:25;9.80;62.80
12853;DHT22;6495;51.808;7.478;2023-04-05T19:54:17;9.70;63.50
12853;DHT22;6495;51.808;7.478;2023-04-05T19:57:13;9.60;63.90
12853;DHT22;6495;51.808;7.478;2023-04-05T20:00:31;9.50;64.00
12853;DHT22;6495;51.808;7.478;2023-04-05T20:03:29;9.40;64.10
12853;DHT22;6495;51.808;7.478;2023-04-05T20:06:20;9.30;64.10
12853;DHT22;6495;51.808;7.478;2023-04-05T20:09:12;9.20;64.20
12853;DHT22;6495;51.808;7.478;2023-04-05T20:12:04;9.20;64.40
12853;DHT22;6495;51.808;7.478;2023-04-05T20:14:54;9.10;64.40
12853;DHT22;6495;51.808;7.478;2023-04-05T20:17:45;9.00;64.50
12853;DHT22;6495;51.808;7.478;2023-04-05T20:20:42;9.00;64.80